createdAt,value
2022-08-19T00:01:04.235Z,51.17
2022-08-19T00:03:52.822Z,51.15
2022-08-19T00:06:44.805Z,51.09
2022-08-19T00:09:33.873Z,51.40
2022-08-19T00:12:22.543Z,51.23
2022-08-19T00:15:14.929Z,51.47
2022-08-19T00:18:03.459Z,51.51
2022-08-19T00:20:52.215Z,52.07
2022-08-19T00:23:42.640Z,52.24
2022-08-19T00:26:31.103Z,52.31
2022-08-19T00:29:22.234Z,52.26
2022-08-19T00:32:10.983Z,51.78
2022-08-19T00:35:02.520Z,52.02
2022-08-19T00:37:51.871Z,51.54
2022-08-19T00:40:42.132Z,52.31
2022-08-19T00:43:31.024Z,52.21
2022-08-19T00:46:19.598Z,52.68
2022-08-19T00:49:12.360Z,52.43
2022-08-19T00:52:05.659Z,52.76
2022-08-19T00:54:54.948Z,52.87
2022-08-19T00:57:48.955Z,52.81
2022-08-19T01:00:38.434Z,53.22
2022-08-19T01:03:27.073Z,53.04
2022-08-19T01:06:15.699Z,53.32
2022-08-19T01:09:08.637Z,53.42
2022-08-19T01:11:57.387Z,53.63
2022-08-19T01:14:47.580Z,53.67
2022-08-19T01:17:36.467Z,53.49
2022-08-19T01:20:25.938Z,53.56
2022-08-19T01:23:16.161Z,53.63
2022-08-19T01:26:04.707Z,53.45
2022-08-19T01:28:57.372Z,53.14
2022-08-19T01:31:48.220Z,53.56
2022-08-19T01:34:36.931Z,53.95
2022-08-19T01:37:27.189Z,53.78
2022-08-19T01:40:17.684Z,53.87
2022-08-19T01:43:06.917Z,53.89
2022-08-19T01:45:55.443Z,53.70
2022-08-19T01:48:45.787Z,53.83
2022-08-19T01:51:39.649Z,54.04
2022-08-19T01:54:28.929Z,53.99
2022-08-19T01:57:18.775Z,54.27
2022-08-19T02:00:09.469Z,53.69
2022-08-19T02:02:58.339Z,54.04
2022-08-19T02:05:51.196Z,53.95
2022-08-19T02:08:42.015Z,54.23
2022-08-19T02:11:36.623Z,54.13
2022-08-19T02:14:26.448Z,54.36
2022-08-19T02:17:15.018Z,54.51
2022-08-19T02:20:03.616Z,54.23
2022-08-19T02:22:52.609Z,54.22
2022-08-19T02:25:41.529Z,54.13
2022-08-19T02:28:30.212Z,54.12
2022-08-19T02:31:23.529Z,53.69
2022-08-19T02:34:14.209Z,53.71
2022-08-19T02:37:03.842Z,53.12
2022-08-19T02:39:51.727Z,53.55
2022-08-19T02:42:40.474Z,53.01
2022-08-19T02:45:29.070Z,52.94
2022-08-19T02:48:21.541Z,53.12
2022-08-19T02:51:10.517Z,53.27
2022-08-19T02:53:59.834Z,53.51
2022-08-19T02:56:48.409Z,53.81
2022-08-19T02:59:36.934Z,53.70
2022-08-19T03:02:25.495Z,53.61
2022-08-19T03:05:15.375Z,53.15
2022-08-19T03:08:04.522Z,52.82
2022-08-19T03:10:54.020Z,53.37
2022-08-19T03:13:44.144Z,52.84
2022-08-19T03:16:34.877Z,53.62
2022-08-19T03:19:23.632Z,53.78
2022-08-19T03:22:13.645Z,53.35
2022-08-19T03:25:02.211Z,53.57
2022-08-19T03:27:50.623Z,53.09
2022-08-19T03:30:40.508Z,53.47
2022-08-19T03:33:33.271Z,53.52
2022-08-19T03:36:25.433Z,53.92
2022-08-19T03:39:17.228Z,53.73
2022-08-19T03:42:38.841Z,53.54
2022-08-19T03:45:14.897Z,54.26
2022-08-19T03:48:03.430Z,54.11
2022-08-19T03:50:52.070Z,53.76
2022-08-19T03:53:40.609Z,54.19
2022-08-19T03:56:30.636Z,53.63
2022-08-19T03:59:22.136Z,53.43
2022-08-19T04:02:13.086Z,53.88
2022-08-19T04:05:01.652Z,53.47
2022-08-19T04:07:50.238Z,53.28
2022-08-19T04:10:39.217Z,53.25
2022-08-19T04:13:29.073Z,53.60
2022-08-19T04:16:17.657Z,53.16
2022-08-19T04:19:07.604Z,53.46
2022-08-19T04:21:56.938Z,53.40
2022-08-19T04:24:45.461Z,53.87
2022-08-19T04:27:34.376Z,53.37
2022-08-19T04:30:24.452Z,53.43
2022-08-19T04:33:14.131Z,53.46
2022-08-19T04:36:02.572Z,53.82
2022-08-19T04:38:51.431Z,53.43
2022-08-19T04:41:54.149Z,53.18
2022-08-19T04:44:46.385Z,53.56
2022-08-19T04:47:47.877Z,53.06
2022-08-19T04:50:46.013Z,52.83
2022-08-19T04:53:37.794Z,53.17
2022-08-19T04:56:27.589Z,53.27
2022-08-19T04:59:16.969Z,53.26
2022-08-19T05:02:06.992Z,53.43
2022-08-19T05:05:01.938Z,52.65
2022-08-19T05:07:50.495Z,52.90
2022-08-19T05:10:39.624Z,52.40
2022-08-19T05:13:29.009Z,52.23
2022-08-19T05:16:19.674Z,52.49
2022-08-19T05:19:37.483Z,52.12
2022-08-19T05:22:39.607Z,52.36
2022-08-19T05:25:28.082Z,51.70
2022-08-19T05:28:16.551Z,51.56
2022-08-19T05:31:05.054Z,51.50
2022-08-19T05:33:53.535Z,52.00
2022-08-19T05:36:46.069Z,51.40
2022-08-19T05:39:38.255Z,51.58
2022-08-19T05:42:27.489Z,51.82
2022-08-19T05:45:16.132Z,51.85
2022-08-19T05:48:05.001Z,51.25
2022-08-19T05:50:53.466Z,51.59
2022-08-19T05:53:41.955Z,50.96
2022-08-19T05:56:32.420Z,51.49
2022-08-19T05:59:22.439Z,51.30
2022-08-19T06:02:14.530Z,51.31
2022-08-19T06:05:03.658Z,50.68
2022-08-19T06:07:52.183Z,51.07
2022-08-19T06:10:40.834Z,51.25
2022-08-19T06:13:33.292Z,51.14
2022-08-19T06:16:24.276Z,51.29
2022-08-19T06:19:15.520Z,50.59
2022-08-19T06:22:04.283Z,50.50
2022-08-19T06:24:53.599Z,50.99
2022-08-19T06:28:11.552Z,50.89
2022-08-19T06:30:52.550Z,50.76
2022-08-19T06:33:41.073Z,50.44
2022-08-19T06:36:32.726Z,50.24
2022-08-19T06:39:23.269Z,50.18
2022-08-19T06:42:17.133Z,50.01
2022-08-19T06:45:09.631Z,50.72
2022-08-19T06:48:00.090Z,50.05
2022-08-19T06:50:52.465Z,50.77
2022-08-19T06:53:41.478Z,50.66
2022-08-19T06:56:34.601Z,50.71
2022-08-19T06:59:28.178Z,50.28
2022-08-19T07:05:11.994Z,50.19
2022-08-19T07:08:04.968Z,50.10
2022-08-19T07:10:53.734Z,50.53
2022-08-19T07:13:44.336Z,50.13
2022-08-19T07:16:33.044Z,50.76
2022-08-19T07:19:22.050Z,50.75
2022-08-19T07:22:13.112Z,50.67
2022-08-19T07:25:03.770Z,50.57
2022-08-19T07:27:54.414Z,50.90
2022-08-19T07:30:43.220Z,50.25
2022-08-19T07:33:33.552Z,50.29
2022-08-19T07:36:25.335Z,50.62
2022-08-19T07:39:19.393Z,50.90
2022-08-19T07:42:10.857Z,50.65
2022-08-19T07:45:02.135Z,50.60
2022-08-19T07:47:51.334Z,50.37
2022-08-19T07:50:39.958Z,50.22
2022-08-19T07:53:28.570Z,50.84
2022-08-19T07:56:19.486Z,50.54
2022-08-19T07:59:08.789Z,50.37
2022-08-19T08:02:00.622Z,50.34
2022-08-19T08:05:06.792Z,50.66
2022-08-19T08:08:13.221Z,50.92
2022-08-19T08:11:01.700Z,50.61
2022-08-19T08:14:01.084Z,50.37
2022-08-19T08:16:53.679Z,50.77
2022-08-19T08:19:43.116Z,50.62
2022-08-19T08:22:49.760Z,50.92
2022-08-19T08:25:38.889Z,50.49
2022-08-19T08:28:29.571Z,50.61
2022-08-19T08:31:20.566Z,50.72
2022-08-19T08:34:09.805Z,50.59
2022-08-19T08:36:58.285Z,50.92
2022-08-19T08:39:46.856Z,50.95
2022-08-19T08:42:38.808Z,50.33
2022-08-19T08:45:27.329Z,50.91
2022-08-19T08:48:26.931Z,50.30
2022-08-19T08:51:20.404Z,50.79
2022-08-19T08:54:13.633Z,50.81
2022-08-19T08:57:02.204Z,50.22
2022-08-19T08:59:52.716Z,50.47
2022-08-19T09:02:43.537Z,50.56
2022-08-19T09:05:56.930Z,50.75
2022-08-19T09:08:52.272Z,50.28
2022-08-19T09:11:52.207Z,50.23
2022-08-19T09:14:50.852Z,49.99
2022-08-19T09:17:40.577Z,50.36
2022-08-19T09:20:29.077Z,50.78
2022-08-19T09:23:18.972Z,50.35
2022-08-19T09:26:17.272Z,50.31
2022-08-19T09:29:09.919Z,49.88
2022-08-19T09:31:58.499Z,50.55
2022-08-19T09:34:50.836Z,50.45
2022-08-19T09:37:40.347Z,50.22
2022-08-19T09:40:32.642Z,50.31
2022-08-19T09:43:32.913Z,50.68
2022-08-19T09:46:22.929Z,50.58
2022-08-19T09:49:12.443Z,50.15
2022-08-19T09:52:02.381Z,50.55
2022-08-19T09:54:55.045Z,50.54
2022-08-19T09:57:44.852Z,50.15
2022-08-19T10:00:33.311Z,50.69
2022-08-19T10:03:21.794Z,50.36
2022-08-19T10:06:15.120Z,50.31
2022-08-19T10:09:09.039Z,50.52
2022-08-19T10:11:57.714Z,49.97
2022-08-19T10:14:48.114Z,50.23
2022-08-19T10:17:37.088Z,50.35
2022-08-19T10:20:26.013Z,50.09
2022-08-19T10:23:14.907Z,50.34
2022-08-19T10:26:07.107Z,50.12
2022-08-19T10:28:56.043Z,50.01
2022-08-19T10:32:01.253Z,50.51
2022-08-19T10:34:52.858Z,49.90
2022-08-19T10:37:57.040Z,49.75
2022-08-19T10:40:46.169Z,49.85
2022-08-19T10:43:35.520Z,50.21
2022-08-19T10:46:25.357Z,49.92
2022-08-19T10:49:16.161Z,49.96
2022-08-19T10:52:32.577Z,50.19
2022-08-19T10:55:41.225Z,49.55
2022-08-19T10:58:29.686Z,50.17
2022-08-19T11:01:18.254Z,49.91
2022-08-19T11:04:09.943Z,50.02
2022-08-19T11:06:59.977Z,49.48
2022-08-19T11:09:48.561Z,49.95
2022-08-19T11:12:40.142Z,49.51
2022-08-19T11:15:29.699Z,49.50
2022-08-19T11:18:18.506Z,50.03
2022-08-19T11:21:15.340Z,49.54
2022-08-19T11:24:07.550Z,49.46
2022-08-19T11:26:59.903Z,49.47
2022-08-19T11:29:48.391Z,49.84
2022-08-19T11:32:36.871Z,49.86
2022-08-19T11:35:25.891Z,49.86
2022-08-19T11:38:15.596Z,49.26
2022-08-19T11:41:08.211Z,49.58
2022-08-19T11:43:57.491Z,49.29
2022-08-19T11:46:47.456Z,49.23
2022-08-19T11:49:37.256Z,49.70
2022-08-19T11:52:26.410Z,49.51
2022-08-19T11:55:15.412Z,49.61
2022-08-19T11:58:07.341Z,49.35
2022-08-19T12:01:08.880Z,49.57
2022-08-19T12:03:59.061Z,49.73
2022-08-19T12:06:47.591Z,49.37
2022-08-19T12:09:36.319Z,49.33
2022-08-19T12:12:30.651Z,49.64
2022-08-19T12:15:20.401Z,49.08
2022-08-19T12:18:09.484Z,49.10
2022-08-19T12:20:57.988Z,49.26
2022-08-19T12:23:47.377Z,49.79
2022-08-19T12:26:52.381Z,49.39
2022-08-19T12:29:42.495Z,49.08
2022-08-19T12:32:32.461Z,49.03
2022-08-19T12:35:22.156Z,49.51
2022-08-19T12:38:10.831Z,49.42
2022-08-19T12:41:00.405Z,49.48
2022-08-19T12:43:50.127Z,49.02
2022-08-19T12:46:38.597Z,49.23
2022-08-19T12:49:52.814Z,49.60
2022-08-19T12:52:43.470Z,49.40
2022-08-19T12:55:32.781Z,48.92
2022-08-19T12:58:24.256Z,49.29
2022-08-19T13:01:18.242Z,48.66
2022-08-19T13:04:11.379Z,48.74
2022-08-19T13:07:01.301Z,49.27
2022-08-19T13:09:49.945Z,48.93
2022-08-19T13:12:38.441Z,49.29
2022-08-19T13:15:29.411Z,49.18
2022-08-19T13:18:17.864Z,48.69
2022-08-19T13:21:07.124Z,48.61
2022-08-19T13:23:57.283Z,48.71
2022-08-19T13:26:45.840Z,48.58
2022-08-19T13:29:52.052Z,49.21
2022-08-19T13:32:57.951Z,49.25
2022-08-19T13:35:49.229Z,49.07
2022-08-19T13:38:38.828Z,49.16
2022-08-19T13:41:29.114Z,49.07
2022-08-19T13:44:19.160Z,49.86
2022-08-19T13:47:09.195Z,49.66
2022-08-19T13:49:57.713Z,49.50
2022-08-19T13:52:46.523Z,49.98
2022-08-19T13:55:35.355Z,50.65
2022-08-19T13:58:25.174Z,50.37
2022-08-19T14:01:13.671Z,49.96
2022-08-19T14:04:02.254Z,50.57
2022-08-19T14:06:50.726Z,49.84
2022-08-19T14:09:39.230Z,50.29
2022-08-19T14:12:28.226Z,50.44
2022-08-19T14:15:19.071Z,50.64
2022-08-19T14:18:07.737Z,50.93
2022-08-19T14:20:57.200Z,50.46
2022-08-19T14:23:47.514Z,50.96
2022-08-19T14:26:36.026Z,51.34
2022-08-19T14:29:24.828Z,51.27
2022-08-19T14:32:16.744Z,51.09
2022-08-19T14:35:06.421Z,51.39
2022-08-19T14:37:56.728Z,51.23
2022-08-19T14:40:45.611Z,51.42
2022-08-19T14:43:34.280Z,51.78
2022-08-19T14:46:25.163Z,51.31
2022-08-19T14:49:15.002Z,51.12
2022-08-19T14:52:04.559Z,51.84
2022-08-19T14:54:53.152Z,51.58
2022-08-19T14:57:43.369Z,51.58
2022-08-19T15:00:31.849Z,51.39
2022-08-19T15:03:20.358Z,50.94
2022-08-19T15:06:12.838Z,50.36
2022-08-19T15:09:04.527Z,50.76
2022-08-19T15:11:53.123Z,49.95
2022-08-19T15:14:43.338Z,50.26
2022-08-19T15:17:45.194Z,50.34
2022-08-19T15:20:34.565Z,50.31
2022-08-19T15:23:24.616Z,50.30
2022-08-19T15:26:16.135Z,50.15
2022-08-19T15:29:05.254Z,49.50
2022-08-19T15:31:56.134Z,49.36
2022-08-19T15:34:46.597Z,49.66
2022-08-19T15:37:37.610Z,49.54
2022-08-19T15:40:28.844Z,49.45
2022-08-19T15:43:18.236Z,49.31
2022-08-19T15:46:07.117Z,49.71
2022-08-19T15:48:59.905Z,49.82
2022-08-19T15:51:51.924Z,49.45
2022-08-19T15:54:40.987Z,49.77
2022-08-19T15:57:50.457Z,49.59
2022-08-19T16:00:57.086Z,48.98
2022-08-19T16:04:03.216Z,49.20
2022-08-19T16:06:54.596Z,49.50
2022-08-19T16:09:43.164Z,48.97
2022-08-19T16:12:33.101Z,48.99
2022-08-19T16:15:21.976Z,49.24
2022-08-19T16:18:10.570Z,49.23
2022-08-19T16:20:59.085Z,48.86
2022-08-19T16:23:48.030Z,48.81
2022-08-19T16:26:36.665Z,49.19
2022-08-19T16:29:33.733Z,49.47
2022-08-19T16:32:23.784Z,49.49
2022-08-19T16:35:12.611Z,49.26
2022-08-19T16:38:01.297Z,50.10
2022-08-19T16:40:54.293Z,49.80
2022-08-19T16:43:43.435Z,49.89
2022-08-19T16:46:37.226Z,50.18
2022-08-19T16:49:53.709Z,49.98
2022-08-19T16:52:36.443Z,49.94
2022-08-19T16:55:25.305Z,50.34
2022-08-19T16:58:13.851Z,50.93
2022-08-19T17:01:04.387Z,50.46
2022-08-19T17:03:54.956Z,50.94
2022-08-19T17:06:44.929Z,51.18
2022-08-19T17:09:33.461Z,50.80
2022-08-19T17:12:23.087Z,50.61
2022-08-19T17:15:19.237Z,51.16
2022-08-19T17:18:09.698Z,50.32
2022-08-19T17:21:00.057Z,50.21
2022-08-19T17:23:48.722Z,50.42
2022-08-19T17:26:38.023Z,50.50
2022-08-19T17:29:26.534Z,50.19
2022-08-19T17:32:15.359Z,50.32
2022-08-19T17:35:04.770Z,50.49
2022-08-19T17:37:55.049Z,49.84
2022-08-19T17:40:43.971Z,50.28
2022-08-19T17:43:35.433Z,50.06
2022-08-19T17:46:26.622Z,50.64
2022-08-19T17:49:15.667Z,50.08
2022-08-19T17:52:10.082Z,49.95
2022-08-19T17:55:00.128Z,50.53
2022-08-19T17:57:48.652Z,50.21
2022-08-19T18:00:37.147Z,50.84
2022-08-19T18:03:43.144Z,50.84
2022-08-19T18:06:31.754Z,50.25
2022-08-19T18:09:20.971Z,50.41
2022-08-19T18:12:16.993Z,50.65
2022-08-19T18:15:07.128Z,50.32
2022-08-19T18:17:56.354Z,50.65
2022-08-19T18:20:45.819Z,50.39
2022-08-19T18:23:44.097Z,50.27
2022-08-19T18:26:34.914Z,50.47
2022-08-19T18:29:24.956Z,50.60
2022-08-19T18:32:13.840Z,50.60
2022-08-19T18:35:03.114Z,50.56
2022-08-19T18:37:51.709Z,50.84
2022-08-19T18:40:57.978Z,50.74
2022-08-19T18:44:04.175Z,50.98
2022-08-19T18:47:12.032Z,51.44
2022-08-19T18:50:07.724Z,51.10
2022-08-19T18:52:56.252Z,51.20
2022-08-19T18:55:49.481Z,51.30
2022-08-19T18:58:39.610Z,51.53
2022-08-19T19:01:30.835Z,51.66
2022-08-19T19:04:24.233Z,51.03
2022-08-19T19:07:14.201Z,50.98
2022-08-19T19:10:02.852Z,50.99
2022-08-19T19:12:51.455Z,51.16
2022-08-19T19:15:43.428Z,51.64
2022-08-19T19:18:34.354Z,51.58
2022-08-19T19:21:26.447Z,51.46
2022-08-19T19:24:16.741Z,51.65
2022-08-19T19:27:08.372Z,51.70
2022-08-19T19:29:57.436Z,51.10
2022-08-19T19:32:45.970Z,50.99
2022-08-19T19:35:34.552Z,51.43
2022-08-19T19:38:24.583Z,50.98
2022-08-19T19:41:14.226Z,51.51
2022-08-19T19:44:30.028Z,51.34
2022-08-19T19:47:13.104Z,51.32
2022-08-19T19:50:17.824Z,51.13
2022-08-19T19:53:06.415Z,51.22
2022-08-19T19:55:58.847Z,51.14
2022-08-19T19:58:50.402Z,50.81
2022-08-19T20:01:39.534Z,50.50
2022-08-19T20:04:32.868Z,50.11
2022-08-19T20:07:42.640Z,50.91
2022-08-19T20:10:31.867Z,50.29
2022-08-19T20:13:22.188Z,50.67
2022-08-19T20:16:10.836Z,51.20
2022-08-19T20:19:00.595Z,50.58
2022-08-19T20:21:51.496Z,51.28
2022-08-19T20:24:42.384Z,50.71
2022-08-19T20:27:37.157Z,50.62
2022-08-19T20:30:32.113Z,50.30
2022-08-19T20:33:21.782Z,50.09
2022-08-19T20:36:10.455Z,50.22
2022-08-19T20:38:59.590Z,50.02
2022-08-19T20:41:48.824Z,50.07
2022-08-19T20:44:37.985Z,50.43
2022-08-19T20:47:29.596Z,50.20
2022-08-19T20:50:18.778Z,49.76
2022-08-19T20:53:16.241Z,49.81
2022-08-19T20:56:05.196Z,50.06
2022-08-19T20:58:57.949Z,49.61
2022-08-19T21:01:48.869Z,49.58
2022-08-19T21:04:38.933Z,49.63
2022-08-19T21:07:39.155Z,49.61
2022-08-19T21:10:28.194Z,50.12
2022-08-19T21:13:17.668Z,50.64
2022-08-19T21:16:09.502Z,50.44
2022-08-19T21:18:58.026Z,50.19
2022-08-19T21:21:47.909Z,49.85
2022-08-19T21:24:36.646Z,50.40
2022-08-19T21:27:25.132Z,50.25
2022-08-19T21:30:14.757Z,50.55
2022-08-19T21:33:04.454Z,50.21
2022-08-19T21:35:53.533Z,50.16
2022-08-19T21:38:44.032Z,50.25
2022-08-19T21:41:32.588Z,50.08
2022-08-19T21:44:21.013Z,49.88
2022-08-19T21:47:09.542Z,50.03
2022-08-19T21:49:59.066Z,49.98
2022-08-19T21:52:47.841Z,50.03
2022-08-19T21:55:37.619Z,49.75
2022-08-19T21:58:28.338Z,49.99
2022-08-19T22:01:19.208Z,49.52
2022-08-19T22:04:07.699Z,49.89
2022-08-19T22:06:56.191Z,50.72
2022-08-19T22:09:46.464Z,50.69
2022-08-19T22:12:39.265Z,50.46
2022-08-19T22:15:41.053Z,50.34
2022-08-19T22:18:29.527Z,50.25
2022-08-19T22:21:22.621Z,50.18
2022-08-19T22:24:28.547Z,50.33
2022-08-19T22:27:17.007Z,50.16
2022-08-19T22:30:10.142Z,50.01
2022-08-19T22:33:00.824Z,50.14
2022-08-19T22:35:49.611Z,49.51
2022-08-19T22:38:38.432Z,49.50
2022-08-19T22:41:27.581Z,49.79
2022-08-19T22:44:16.051Z,49.91
2022-08-19T22:47:06.373Z,49.43
2022-08-19T22:49:54.995Z,49.41
2022-08-19T22:52:51.740Z,49.43
2022-08-19T22:55:40.992Z,49.80
2022-08-19T22:58:29.789Z,49.96
2022-08-19T23:01:27.368Z,50.12
2022-08-19T23:04:19.985Z,50.00
2022-08-19T23:07:09.335Z,50.41
2022-08-19T23:09:58.003Z,50.63
2022-08-19T23:12:49.332Z,50.87
2022-08-19T23:15:38.348Z,50.80
2022-08-19T23:18:26.968Z,50.60
2022-08-19T23:21:16.828Z,50.73
2022-08-19T23:24:06.562Z,50.69
2022-08-19T23:27:13.059Z,51.21
2022-08-19T23:30:18.943Z,51.02
2022-08-19T23:33:14.756Z,51.06
2022-08-19T23:36:07.562Z,51.30
2022-08-19T23:38:57.900Z,50.86
2022-08-19T23:41:46.430Z,50.91
2022-08-19T23:44:34.966Z,51.11
2022-08-19T23:47:41.359Z,51.16
2022-08-19T23:50:29.877Z,50.95
2022-08-19T23:53:18.425Z,50.76
2022-08-19T23:56:09.457Z,50.37
2022-08-19T23:58:59.279Z,50.69
